Time;durP1;ratioP1;P1;durP2;ratioP2;P2;SDS_P1;SDS_P2;PMS_P1;PMS_P2;Temp;Humidity;BMP_temperature;BMP_pressure;BME280_temperature;BME280_humidity;BME280_pressure;Samples;Min_cycle;Max_cycle;Signal;HPM_P1;HPM_P2
2022/12/25 00:00:23;;;;;;;;;;;;;;;;;;5071999;28;19995;-66
2022/12/25 00:02:48;;;;;;;;;;;;;;;;;;5071042;28;19943;-66
2022/12/25 00:05:13;;;;;;;;;;;;;;;;;;5075136;28;19913;-67
2022/12/25 00:07:38;;;;;;;;;;;;;;;;;;5078051;28;20292;-66
2022/12/25 00:10:03;;;;;;;;;;;;;;;;;;5072102;28;19966;-67
2022/12/25 00:12:29;;;;;;;;;;;;;;;;;;5078688;28;19913;-68
2022/12/25 00:14:54;;;;;;;;;;;;;;;;;;5077583;28;20280;-67
2022/12/25 00:17:19;;;;;;;;;;;;;;;;;;5072215;28;19920;-67
2022/12/25 00:19:44;;;;;;;;;;;;;;;;;;5070932;28;19915;-67
2022/12/25 00:22:09;;;;;;;;;;;;;;;;;;5084645;28;19919;-67
2022/12/25 00:24:34;;;;;;;;;;;;;;;;;;5083134;28;20379;-68
2022/12/25 00:26:59;;;;;;;;;;;;;;;;;;5091505;28;19922;-66
2022/12/25 00:29:24;;;;;;;;;;;;;;;;;;5069543;28;19921;-67
2022/12/25 00:31:50;;;;;;;;;;;;;;;;;;5074458;28;19920;-66
2022/12/25 00:34:15;;;;;;;;;;;;;;;;;;5068165;28;19913;-67
2022/12/25 00:36:40;;;;;;;;;;;;;;;;;;5053066;28;19991;-66
2022/12/25 00:39:06;;;;;;;;;;;;;;;;;;5086129;28;20348;-67
2022/12/25 00:44:15;;;;;;;;;;;;;;;;;;5080150;28;19919;-67
2022/12/25 00:46:40;;;;;;;;;;;;;;;;;;5077109;28;20319;-67
2022/12/25 00:49:05;;;;;;;;;;;;;;;;;;5069358;28;20046;-66
2022/12/25 00:51:30;;;;;;;;;;;;;;;;;;5069386;28;19924;-66
2022/12/25 00:53:55;;;;;;;;;;;;;;;;;;5067624;28;19917;-67
2022/12/25 00:56:21;;;;;;;;;;;;;;;;;;5056396;28;19974;-67
2022/12/25 00:58:46;;;;;;;;;;;;;;;;;;5070586;28;20134;-67
2022/12/25 01:01:11;;;;;;;;;;;;;;;;;;5080969;28;20256;-67
2022/12/25 01:03:36;;;;;;;;;;;;;;;;;;5105393;28;19912;-66
2022/12/25 01:06:01;;;;;;;;;;;;;;;;;;5084982;28;19916;-67
2022/12/25 01:08:27;;;;;;;;;;;;;;;;;;5074032;28;20463;-66
2022/12/25 01:10:52;;;;;;;;;;;;;;;;;;5072953;28;20329;-67
2022/12/25 01:13:17;;;;;;;;;;;;;;;;;;5079389;28;19912;-66
2022/12/25 01:15:42;;;;;;;;;;;;;;;;;;5075575;28;19959;-67
2022/12/25 01:18:07;;;;;;;;;;;;;;;;;;5096013;28;20392;-67
2022/12/25 01:20:32;;;;;;;;;;;;;;;;;;5074813;28;19917;-67
2022/12/25 01:22:57;;;;;;;;;;;;;;;;;;5071765;28;19917;-66
2022/12/25 01:25:23;;;;;;;;;;;;;;;;;;5057063;28;20440;-67
2022/12/25 01:27:48;;;;;;;;;;;;;;;;;;5085572;28;20386;-66
2022/12/25 01:30:13;;;;;;;;;;;;;;;;;;5116568;27;19920;-67
2022/12/25 01:32:38;;;;;;;;;;;;;;;;;;5113476;27;20025;-66
2022/12/25 01:35:03;;;;;;;;;;;;;;;;;;5074830;28;19916;-67
2022/12/25 01:37:28;;;;;;;;;;;;;;;;;;5072455;28;19913;-66
2022/12/25 01:39:53;;;;;;;;;;;;;;;;;;5106780;28;20372;-66
2022/12/25 01:42:19;;;;;;;;;;;;;;;;;;5111055;27;19913;-66
2022/12/25 01:44:44;;;;;;;;;;;;;;;;;;5077010;28;19916;-66
2022/12/25 01:47:09;;;;;;;;;;;;;;;;;;5076595;28;20295;-65
2022/12/25 01:49:34;;;;;;;;;;;;;;;;;;5078569;28;20479;-65
2022/12/25 01:51:59;;;;;;;;;;;;;;;;;;5112795;27;19912;-66
2022/12/25 01:54:24;;;;;;;;;;;;;;;;;;5082625;28;20400;-67
2022/12/25 01:56:49;;;;;;;;;;;;;;;;;;5084723;28;19965;-67
2022/12/25 01:59:14;;;;;;;;;;;;;;;;;;5087781;28;19915;-67
2022/12/25 02:01:40;;;;;;;;;;;;;;;;;;5087316;28;20329;-65
2022/12/25 02:04:05;;;;;;;;;;;;;;;;;;5070186;28;20285;-65
2022/12/25 02:06:30;;;;;;;;;;;;;;;;;;5096614;27;19917;-65
2022/12/25 02:08:55;;;;;;;;;;;;;;;;;;5079520;28;19916;-66
2022/12/25 02:14:04;;;;;;;;;;;;;;;;;;5072251;28;19962;-65
2022/12/25 02:16:29;;;;;;;;;;;;;;;;;;5074906;28;19917;-65
2022/12/25 02:18:55;;;;;;;;;;;;;;;;;;5074483;28;20281;-67
2022/12/25 02:21:20;;;;;;;;;;;;;;;;;;5084363;28;19920;-65
2022/12/25 02:23:45;;;;;;;;;;;;;;;;;;5076604;28;19912;-68
2022/12/25 02:26:10;;;;;;;;;;;;;;;;;;5107367;27;19916;-65
2022/12/25 02:28:35;;;;;;;;;;;;;;;;;;5071666;28;19987;-66
2022/12/25 02:31:00;;;;;;;;;;;;;;;;;;5087753;28;20361;-66
2022/12/25 02:36:09;;;;;;;;;;;;;;;;;;5068794;28;20374;-65
2022/12/25 02:38:34;;;;;;;;;;;;;;;;;;5085127;28;19912;-67
2022/12/25 02:40:59;;;;;;;;;;;;;;;;;;5078695;28;19913;-66
2022/12/25 03:08:00;;;;;;;;;;;;;;;;;;5088891;28;19958;-66
2022/12/25 03:13:09;;;;;;;;;;;;;;;;;;5079292;28;19924;-65
2022/12/25 03:18:18;;;;;;;;;;;;;;;;;;5069651;28;20289;-65
2022/12/25 03:28:55;;;;;;;;;;;;;;;;;;5082346;28;19927;-65
2022/12/25 03:31:20;;;;;;;;;;;;;;;;;;5100503;28;19913;-65
2022/12/25 03:36:29;;;;;;;;;;;;;;;;;;5089366;28;20382;-66
2022/12/25 03:39:13;;;;;;;;;;;;;;;;;;5088827;28;20002;-66
2022/12/25 04:36:16;;;;;;;;;;;;;;;;;;5072471;28;19958;-62
2022/12/25 04:38:42;;;;;;;;;;;;;;;;;;5077392;28;19916;-62
2022/12/25 04:41:07;;;;;;;;;;;;;;;;;;5095053;28;19912;-63
2022/12/25 04:43:32;;;;;;;;;;;;;;;;;;5083133;28;19960;-62
2022/12/25 04:45:57;;;;;;;;;;;;;;;;;;5078018;28;19916;-62
2022/12/25 04:48:22;;;;;;;;;;;;;;;;;;5077743;28;19916;-62
2022/12/25 04:50:47;;;;;;;;;;;;;;;;;;5083727;28;19912;-63
2022/12/25 04:53:12;;;;;;;;;;;;;;;;;;5073334;28;19917;-63
2022/12/25 04:55:37;;;;;;;;;;;;;;;;;;5111668;28;19955;-62
2022/12/25 04:58:03;;;;;;;;;;;;;;;;;;5080547;28;19917;-63
2022/12/25 05:00:28;;;;;;;;;;;;;;;;;;5075891;28;20296;-62
2022/12/25 05:02:53;;;;;;;;;;;;;;;;;;5078864;28;19950;-62
2022/12/25 05:05:18;;;;;;;;;;;;;;;;;;5094653;28;19912;-62
2022/12/25 05:07:43;;;;;;;;;;;;;;;;;;5083859;28;19923;-63
2022/12/25 05:10:08;;;;;;;;;;;;;;;;;;5100539;28;19913;-62
2022/12/25 05:12:33;;;;;;;;;;;;;;;;;;5125418;27;19935;-62
2022/12/25 05:14:58;;;;;;;;;;;;;;;;;;5118859;27;19920;-63
2022/12/25 05:17:24;;;;;;;;;;;;;;;;;;5076077;28;19948;-62
2022/12/25 05:19:49;;;;;;;;;;;;;;;;;;5075489;28;19912;-63
2022/12/25 05:22:14;;;;;;;;;;;;;;;;;;5091398;28;19916;-63
2022/12/25 05:24:39;;;;;;;;;;;;;;;;;;5107459;28;19948;-63
2022/12/25 05:27:04;;;;;;;;;;;;;;;;;;5089076;28;19920;-62
2022/12/25 05:29:29;;;;;;;;;;;;;;;;;;5070473;28;19924;-61
2022/12/25 05:31:54;;;;;;;;;;;;;;;;;;5071112;28;20011;-63
2022/12/25 05:34:20;;;;;;;;;;;;;;;;;;5074308;28;19913;-62
2022/12/25 05:36:45;;;;;;;;;;;;;;;;;;5084786;28;19912;-61
2022/12/25 05:39:10;;;;;;;;;;;;;;;;;;5073407;28;19999;-62
2022/12/25 05:41:35;;;;;;;;;;;;;;;;;;5069733;28;19912;-62
2022/12/25 05:44:00;;;;;;;;;;;;;;;;;;5069033;28;20266;-62
2022/12/25 05:46:25;;;;;;;;;;;;;;;;;;5071387;28;20355;-62
2022/12/25 05:48:50;;;;;;;;;;;;;;;;;;5090768;28;19912;-62
2022/12/25 05:51:15;;;;;;;;;;;;;;;;;;5084925;28;20292;-62
2022/12/25 05:53:41;;;;;;;;;;;;;;;;;;5071656;28;19960;-62
2022/12/25 05:56:06;;;;;;;;;;;;;;;;;;5082097;28;19973;-62
2022/12/25 05:58:31;;;;;;;;;;;;;;;;;;5073625;28;19924;-62
2022/12/25 06:00:56;;;;;;;;;;;;;;;;;;5092208;28;20426;-62
2022/12/25 06:03:21;;;;;;;;;;;;;;;;;;5067027;28;20391;-62
2022/12/25 06:05:46;;;;;;;;;;;;;;;;;;5110236;28;19912;-62
2022/12/25 06:08:11;;;;;;;;;;;;;;;;;;5075111;28;19998;-62
2022/12/25 06:10:37;;;;;;;;;;;;;;;;;;5100902;28;19917;-62
2022/12/25 06:13:02;;;;;;;;;;;;;;;;;;5076161;28;19912;-62
2022/12/25 06:15:27;;;;;;;;;;;;;;;;;;5081446;28;19917;-62
2022/12/25 06:17:52;;;;;;;;;;;;;;;;;;5071228;28;19962;-62
2022/12/25 06:20:18;;;;;;;;;;;;;;;;;;5074385;28;19919;-62
2022/12/25 06:22:43;;;;;;;;;;;;;;;;;;5102389;28;19921;-62
2022/12/25 06:25:08;;;;;;;;;;;;;;;;;;5073850;28;19991;-63
2022/12/25 06:27:33;;;;;;;;;;;;;;;;;;5073400;28;19916;-62
2022/12/25 06:29:58;;;;;;;;;;;;;;;;;;5119888;27;19945;-62
2022/12/25 06:32:23;;;;;;;;;;;;;;;;;;5073666;28;19959;-62
2022/12/25 06:34:48;;;;;;;;;;;;;;;;;;5072198;28;19919;-62
2022/12/25 06:37:14;;;;;;;;;;;;;;;;;;5070980;28;19927;-62
2022/12/25 06:39:39;;;;;;;;;;;;;;;;;;5073007;28;19965;-62
2022/12/25 06:42:04;;;;;;;;;;;;;;;;;;5068424;28;19917;-62
2022/12/25 06:44:29;;;;;;;;;;;;;;;;;;5070211;28;19923;-63
2022/12/25 06:46:54;;;;;;;;;;;;;;;;;;5072123;28;19963;-63
2022/12/25 06:49:19;;;;;;;;;;;;;;;;;;5073675;28;19917;-62
2022/12/25 06:51:44;;;;;;;;;;;;;;;;;;5064389;28;19913;-62
2022/12/25 06:54:09;;;;;;;;;;;;;;;;;;5063049;28;19920;-63
2022/12/25 06:56:35;;;;;;;;;;;;;;;;;;5065446;28;20381;-63
2022/12/25 06:59:00;;;;;;;;;;;;;;;;;;5095189;27;19912;-63
2022/12/25 07:01:25;;;;;;;;;;;;;;;;;;5104345;27;19991;-63
2022/12/25 07:03:50;;;;;;;;;;;;;;;;;;5069667;28;19938;-63
2022/12/25 07:06:15;;;;;;;;;;;;;;;;;;5074412;28;19947;-63
2022/12/25 07:08:40;;;;;;;;;;;;;;;;;;5072093;28;19952;-63
2022/12/25 07:11:05;;;;;;;;;;;;;;;;;;5105499;28;19908;-63
2022/12/25 07:13:31;;;;;;;;;;;;;;;;;;5072422;28;20285;-63
2022/12/25 07:15:56;;;;;;;;;;;;;;;;;;5076781;28;20338;-63
2022/12/25 07:18:21;;;;;;;;;;;;;;;;;;5075602;28;19916;-63
2022/12/25 07:20:46;;;;;;;;;;;;;;;;;;5116284;27;20281;-64
2022/12/25 07:23:11;;;;;;;;;;;;;;;;;;5075217;28;19920;-67
2022/12/25 07:25:36;;;;;;;;;;;;;;;;;;5072521;28;19914;-66
2022/12/25 07:28:01;;;;;;;;;;;;;;;;;;5068661;28;19943;-64
2022/12/25 07:30:27;;;;;;;;;;;;;;;;;;5072586;28;19947;-65
2022/12/25 07:32:53;;;;;;;;;;;;;;;;;;5076386;28;19916;-64
2022/12/25 07:35:18;;;;;;;;;;;;;;;;;;5092778;28;19915;-67
2022/12/25 07:37:43;;;;;;;;;;;;;;;;;;5076414;28;19913;-65
2022/12/25 07:40:08;;;;;;;;;;;;;;;;;;5063815;28;20011;-64
2022/12/25 07:42:33;;;;;;;;;;;;;;;;;;5075664;28;19998;-66
2022/12/25 07:44:58;;;;;;;;;;;;;;;;;;5096944;27;20327;-62
2022/12/25 07:47:23;;;;;;;;;;;;;;;;;;5070137;28;19924;-65
2022/12/25 07:49:48;;;;;;;;;;;;;;;;;;5107795;28;20424;-64
2022/12/25 07:52:14;;;;;;;;;;;;;;;;;;5073845;28;20373;-64
2022/12/25 07:54:39;;;;;;;;;;;;;;;;;;5110363;27;20365;-66
2022/12/25 07:57:04;;;;;;;;;;;;;;;;;;5119138;27;19908;-65
2022/12/25 07:59:29;;;;;;;;;;;;;;;;;;5069730;28;19909;-71
2022/12/25 08:01:54;;;;;;;;;;;;;;;;;;5069327;28;20292;-67
2022/12/25 08:04:19;;;;;;;;;;;;;;;;;;5069843;28;19916;-62
2022/12/25 08:06:44;;;;;;;;;;;;;;;;;;5069250;28;19965;-62
2022/12/25 08:09:09;;;;;;;;;;;;;;;;;;5091272;28;20284;-62
2022/12/25 08:11:35;;;;;;;;;;;;;;;;;;5075061;28;20397;-62
2022/12/25 08:14:00;;;;;;;;;;;;;;;;;;5069125;28;19912;-62
2022/12/25 08:16:25;;;;;;;;;;;;;;;;;;5085619;28;19969;-62
2022/12/25 08:18:50;;;;;;;;;;;;;;;;;;5076367;28;19912;-61
2022/12/25 08:21:15;;;;;;;;;;;;;;;;;;5092631;27;19920;-62
2022/12/25 08:23:40;;;;;;;;;;;;;;;;;;5078363;28;20113;-61
2022/12/25 08:26:07;;;;;;;;;;;;;;;;;;5090303;28;19919;-61
2022/12/25 08:28:32;;;;;;;;;;;;;;;;;;5083577;28;19923;-61
2022/12/25 08:30:57;;;;;;;;;;;;;;;;;;5070014;28;19916;-61
2022/12/25 08:33:22;;;;;;;;;;;;;;;;;;5072269;28;19912;-61
2022/12/25 08:35:47;;;;;;;;;;;;;;;;;;5075597;28;20007;-61
2022/12/25 08:38:12;;;;;;;;;;;;;;;;;;5062036;28;19912;-62
2022/12/25 08:40:37;;;;;;;;;;;;;;;;;;5072946;28;19915;-62
2022/12/25 08:43:03;;;;;;;;;;;;;;;;;;5069383;28;20034;-61
2022/12/25 08:45:28;;;;;;;;;;;;;;;;;;5065800;28;19959;-62
2022/12/25 08:47:54;;;;;;;;;;;;;;;;;;5072772;28;20314;-61
2022/12/25 08:50:19;;;;;;;;;;;;;;;;;;5077433;28;20300;-61
2022/12/25 08:52:44;;;;;;;;;;;;;;;;;;5076070;28;19920;-61
2022/12/25 08:55:09;;;;;;;;;;;;;;;;;;5073284;28;19913;-61
2022/12/25 08:57:34;;;;;;;;;;;;;;;;;;5072809;28;19948;-61
2022/12/25 08:59:59;;;;;;;;;;;;;;;;;;5060939;28;19916;-61
2022/12/25 09:02:24;;;;;;;;;;;;;;;;;;5068793;28;19913;-61
2022/12/25 09:04:49;;;;;;;;;;;;;;;;;;5064097;28;20404;-62
2022/12/25 09:07:15;;;;;;;;;;;;;;;;;;5094441;28;19917;-62
2022/12/25 09:09:42;;;;;;;;;;;;;;;;;;5068772;28;19917;-61
2022/12/25 09:12:07;;;;;;;;;;;;;;;;;;5105076;28;19923;-61
2022/12/25 09:14:32;;;;;;;;;;;;;;;;;;5072611;28;19909;-62
2022/12/25 09:16:57;;;;;;;;;;;;;;;;;;5091283;28;19912;-62
2022/12/25 09:19:22;;;;;;;;;;;;;;;;;;5074161;28;19999;-61
2022/12/25 09:21:48;;;;;;;;;;;;;;;;;;5078995;28;19920;-62
2022/12/25 09:24:13;;;;;;;;;;;;;;;;;;5075737;28;19912;-61
2022/12/25 09:26:38;;;;;;;;;;;;;;;;;;5084049;28;20327;-62
2022/12/25 09:29:03;;;;;;;;;;;;;;;;;;5074449;28;20320;-61
2022/12/25 09:31:28;;;;;;;;;;;;;;;;;;5113885;27;19953;-62
2022/12/25 09:33:53;;;;;;;;;;;;;;;;;;5067283;28;19916;-61
2022/12/25 09:36:22;;;;;;;;;;;;;;;;;;5105876;27;19912;-62
2022/12/25 09:38:47;;;;;;;;;;;;;;;;;;5074161;28;19913;-62
2022/12/25 09:41:12;;;;;;;;;;;;;;;;;;5107218;28;19977;-62
2022/12/25 09:43:37;;;;;;;;;;;;;;;;;;5074942;28;19912;-62
2022/12/25 09:46:02;;;;;;;;;;;;;;;;;;5064397;28;20372;-62
2022/12/25 09:48:27;;;;;;;;;;;;;;;;;;5070260;28;19913;-62
2022/12/25 09:50:53;;;;;;;;;;;;;;;;;;5070504;28;19944;-62
2022/12/25 09:53:18;;;;;;;;;;;;;;;;;;5074185;28;20198;-62
2022/12/25 09:55:43;;;;;;;;;;;;;;;;;;5094764;28;19931;-62
2022/12/25 09:58:09;;;;;;;;;;;;;;;;;;5073530;28;20038;-62
2022/12/25 10:00:34;;;;;;;;;;;;;;;;;;5077310;28;19912;-62
2022/12/25 10:02:59;;;;;;;;;;;;;;;;;;5103978;27;19927;-62
2022/12/25 10:05:24;;;;;;;;;;;;;;;;;;5067692;28;19912;-62
2022/12/25 10:07:49;;;;;;;;;;;;;;;;;;5097066;28;20003;-62
2022/12/25 10:10:14;;;;;;;;;;;;;;;;;;5063381;28;19920;-62
2022/12/25 10:12:39;;;;;;;;;;;;;;;;;;5068956;28;19913;-62
2022/12/25 10:15:04;;;;;;;;;;;;;;;;;;5065070;28;19952;-62
2022/12/25 10:17:30;;;;;;;;;;;;;;;;;;5113081;27;19932;-62
2022/12/25 10:19:55;;;;;;;;;;;;;;;;;;5072350;28;19912;-62
2022/12/25 10:22:20;;;;;;;;;;;;;;;;;;5104531;28;19939;-62
2022/12/25 10:24:45;;;;;;;;;;;;;;;;;;5066682;28;20007;-62
2022/12/25 10:27:10;;;;;;;;;;;;;;;;;;5073264;28;19916;-62
2022/12/25 10:29:37;;;;;;;;;;;;;;;;;;5108243;27;19928;-63
2022/12/25 10:32:02;;;;;;;;;;;;;;;;;;5075488;28;19917;-62
2022/12/25 10:34:27;;;;;;;;;;;;;;;;;;5058499;28;20629;-62
2022/12/25 10:36:52;;;;;;;;;;;;;;;;;;5059763;28;19928;-62
2022/12/25 10:39:18;;;;;;;;;;;;;;;;;;5090191;28;20316;-63
2022/12/25 10:41:43;;;;;;;;;;;;;;;;;;5065092;28;20410;-62
2022/12/25 10:44:08;;;;;;;;;;;;;;;;;;5088398;28;19913;-62
2022/12/25 10:46:33;;;;;;;;;;;;;;;;;;5074533;28;20365;-63
2022/12/25 10:48:58;;;;;;;;;;;;;;;;;;5071790;28;20002;-63
2022/12/25 10:51:23;;;;;;;;;;;;;;;;;;5072310;28;19912;-62
2022/12/25 10:53:48;;;;;;;;;;;;;;;;;;5059942;28;19913;-62
2022/12/25 10:56:14;;;;;;;;;;;;;;;;;;5067451;28;19920;-62
2022/12/25 10:58:39;;;;;;;;;;;;;;;;;;5067059;28;19920;-62
2022/12/25 11:01:04;;;;;;;;;;;;;;;;;;5060360;28;19927;-62
2022/12/25 11:03:29;;;;;;;;;;;;;;;;;;5069459;28;20003;-62
2022/12/25 11:05:54;;;;;;;;;;;;;;;;;;5066999;28;19924;-61
2022/12/25 11:08:20;;;;;;;;;;;;;;;;;;5066305;28;19912;-62
2022/12/25 11:10:45;;;;;;;;;;;;;;;;;;5095886;28;19948;-62
2022/12/25 11:13:10;;;;;;;;;;;;;;;;;;5078658;28;19913;-62
2022/12/25 11:15:35;;;;;;;;;;;;;;;;;;5092387;28;19916;-63
2022/12/25 11:18:01;;;;;;;;;;;;;;;;;;5092837;28;19962;-64
2022/12/25 11:20:26;;;;;;;;;;;;;;;;;;5066416;28;19920;-64
2022/12/25 11:22:51;;;;;;;;;;;;;;;;;;5069789;28;19913;-64
2022/12/25 11:25:18;;;;;;;;;;;;;;;;;;5092440;28;19915;-64
2022/12/25 11:27:43;;;;;;;;;;;;;;;;;;5078281;28;20369;-63
2022/12/25 11:30:08;;;;;;;;;;;;;;;;;;5069994;28;19928;-63
2022/12/25 11:32:33;;;;;;;;;;;;;;;;;;5062783;28;19966;-63
2022/12/25 11:34:59;;;;;;;;;;;;;;;;;;5097505;28;20289;-64
2022/12/25 11:37:24;;;;;;;;;;;;;;;;;;5061090;28;20665;-62
2022/12/25 11:39:49;;;;;;;;;;;;;;;;;;5097143;28;19912;-62
2022/12/25 11:42:14;;;;;;;;;;;;;;;;;;5075926;28;19964;-62
2022/12/25 11:44:39;;;;;;;;;;;;;;;;;;5083373;28;19912;-62
2022/12/25 11:47:07;;;;;;;;;;;;;;;;;;5086708;28;19920;-62
2022/12/25 11:49:32;;;;;;;;;;;;;;;;;;5066692;28;19913;-62
2022/12/25 11:51:57;;;;;;;;;;;;;;;;;;5068962;28;19919;-62
2022/12/25 11:54:22;;;;;;;;;;;;;;;;;;5070779;28;19969;-62
2022/12/25 11:56:47;;;;;;;;;;;;;;;;;;5074664;28;20315;-62
2022/12/25 11:59:12;;;;;;;;;;;;;;;;;;5101831;28;19917;-63
2022/12/25 12:01:38;;;;;;;;;;;;;;;;;;5067675;28;20403;-63
2022/12/25 12:04:03;;;;;;;;;;;;;;;;;;5066027;28;19989;-63
2022/12/25 12:06:28;;;;;;;;;;;;;;;;;;5070220;28;19917;-62
2022/12/25 12:08:53;;;;;;;;;;;;;;;;;;5070299;28;19909;-62
2022/12/25 12:11:18;;;;;;;;;;;;;;;;;;5069065;28;19956;-62
2022/12/25 12:13:43;;;;;;;;;;;;;;;;;;5075763;28;19923;-62
2022/12/25 12:16:08;;;;;;;;;;;;;;;;;;5073208;28;19919;-61
2022/12/25 12:18:34;;;;;;;;;;;;;;;;;;5070673;28;19961;-62
2022/12/25 12:20:59;;;;;;;;;;;;;;;;;;5072576;28;20376;-62
2022/12/25 12:23:24;;;;;;;;;;;;;;;;;;5068925;28;19912;-62
2022/12/25 12:25:49;;;;;;;;;;;;;;;;;;5071256;28;19913;-62
2022/12/25 12:28:14;;;;;;;;;;;;;;;;;;5083912;28;20424;-62
2022/12/25 12:30:39;;;;;;;;;;;;;;;;;;5063470;28;20378;-62
2022/12/25 12:33:05;;;;;;;;;;;;;;;;;;5074397;28;20397;-62
2022/12/25 12:35:30;;;;;;;;;;;;;;;;;;5071608;28;20387;-62
2022/12/25 12:37:55;;;;;;;;;;;;;;;;;;5069421;28;20087;-62
2022/12/25 12:40:20;;;;;;;;;;;;;;;;;;5069080;28;19913;-62
2022/12/25 12:42:49;;;;;;;;;;;;;;;;;;5060930;28;19920;-62
2022/12/25 12:45:14;;;;;;;;;;;;;;;;;;5070014;28;19919;-63
2022/12/25 12:47:39;;;;;;;;;;;;;;;;;;5086584;28;19916;-62
2022/12/25 12:50:04;;;;;;;;;;;;;;;;;;5072398;28;20358;-63
2022/12/25 12:52:29;;;;;;;;;;;;;;;;;;5073689;28;20361;-62
2022/12/25 12:54:55;;;;;;;;;;;;;;;;;;5069338;28;20389;-62
2022/12/25 12:57:20;;;;;;;;;;;;;;;;;;5070795;28;20472;-72
2022/12/25 12:59:45;;;;;;;;;;;;;;;;;;5099380;28;20360;-71
2022/12/25 13:02:10;;;;;;;;;;;;;;;;;;5074205;28;19913;-68
2022/12/25 13:04:36;;;;;;;;;;;;;;;;;;5072638;28;19934;-62
2022/12/25 13:07:01;;;;;;;;;;;;;;;;;;5072298;28;19920;-62
2022/12/25 13:09:26;;;;;;;;;;;;;;;;;;5059941;28;19916;-61
2022/12/25 13:11:51;;;;;;;;;;;;;;;;;;5070949;28;19912;-62
2022/12/25 13:14:16;;;;;;;;;;;;;;;;;;5072905;28;20489;-62
2022/12/25 13:16:41;;;;;;;;;;;;;;;;;;5070889;28;20311;-62
2022/12/25 13:19:06;;;;;;;;;;;;;;;;;;5073037;28;19919;-62
2022/12/25 13:21:32;;;;;;;;;;;;;;;;;;5081957;28;19967;-62
2022/12/25 13:23:57;;;;;;;;;;;;;;;;;;5073465;28;19913;-62
2022/12/25 13:26:22;;;;;;;;;;;;;;;;;;5106003;28;19920;-62
2022/12/25 13:28:48;;;;;;;;;;;;;;;;;;5105551;28;20385;-63
2022/12/25 13:31:13;;;;;;;;;;;;;;;;;;5070016;28;19971;-62
2022/12/25 13:33:38;;;;;;;;;;;;;;;;;;5104873;28;20004;-63
2022/12/25 13:36:03;;;;;;;;;;;;;;;;;;5075245;28;19973;-63
2022/12/25 13:38:28;;;;;;;;;;;;;;;;;;5059393;28;20232;-63
2022/12/25 13:43:37;;;;;;;;;;;;;;;;;;5071139;28;19973;-63
2022/12/25 13:46:02;;;;;;;;;;;;;;;;;;5105506;28;20376;-63
2022/12/25 13:48:27;;;;;;;;;;;;;;;;;;5102430;28;19919;-63
2022/12/25 13:50:52;;;;;;;;;;;;;;;;;;5074465;28;19913;-63
2022/12/25 13:53:18;;;;;;;;;;;;;;;;;;5066141;28;20355;-63
2022/12/25 13:55:43;;;;;;;;;;;;;;;;;;5072844;28;19948;-63
2022/12/25 13:58:08;;;;;;;;;;;;;;;;;;5106302;28;19908;-63
2022/12/25 14:00:33;;;;;;;;;;;;;;;;;;5106255;28;19916;-63
2022/12/25 14:02:58;;;;;;;;;;;;;;;;;;5101832;28;19913;-63
2022/12/25 14:05:23;;;;;;;;;;;;;;;;;;5106026;28;19965;-63
2022/12/25 14:07:48;;;;;;;;;;;;;;;;;;5072034;28;19920;-63
2022/12/25 14:10:13;;;;;;;;;;;;;;;;;;5070773;28;19916;-63
2022/12/25 14:12:39;;;;;;;;;;;;;;;;;;5071449;28;19912;-71
2022/12/25 14:15:04;;;;;;;;;;;;;;;;;;5099960;28;19916;-63
2022/12/25 14:17:29;;;;;;;;;;;;;;;;;;5069671;28;19923;-63
2022/12/25 14:19:54;;;;;;;;;;;;;;;;;;5075545;28;20307;-63
2022/12/25 14:22:19;;;;;;;;;;;;;;;;;;5077269;28;19962;-63
2022/12/25 14:24:44;;;;;;;;;;;;;;;;;;5060979;28;19912;-63
2022/12/25 14:27:09;;;;;;;;;;;;;;;;;;5079434;28;19925;-63
2022/12/25 14:29:35;;;;;;;;;;;;;;;;;;5072707;28;19920;-63
2022/12/25 14:32:00;;;;;;;;;;;;;;;;;;5086956;28;19982;-63
2022/12/25 14:34:27;;;;;;;;;;;;;;;;;;5097632;27;20297;-63
2022/12/25 14:36:52;;;;;;;;;;;;;;;;;;5070915;28;19913;-63
2022/12/25 14:39:17;;;;;;;;;;;;;;;;;;5071068;28;19920;-63
2022/12/25 14:41:42;;;;;;;;;;;;;;;;;;5070103;28;19978;-63
2022/12/25 14:44:08;;;;;;;;;;;;;;;;;;5068849;28;19913;-63
2022/12/25 14:46:33;;;;;;;;;;;;;;;;;;5067883;28;19959;-63
2022/12/25 14:48:58;;;;;;;;;;;;;;;;;;5072978;28;19921;-63
2022/12/25 14:51:23;;;;;;;;;;;;;;;;;;5067133;28;19928;-63
2022/12/25 14:53:48;;;;;;;;;;;;;;;;;;5067051;28;19935;-63
2022/12/25 14:56:13;;;;;;;;;;;;;;;;;;5061877;28;19951;-63
2022/12/25 14:58:39;;;;;;;;;;;;;;;;;;5072496;28;20305;-63
2022/12/25 15:01:04;;;;;;;;;;;;;;;;;;5105628;28;20443;-63
2022/12/25 15:03:29;;;;;;;;;;;;;;;;;;5071827;28;19909;-63
2022/12/25 15:05:54;;;;;;;;;;;;;;;;;;5079711;28;19922;-63
2022/12/25 15:08:19;;;;;;;;;;;;;;;;;;5072234;28;19918;-63
2022/12/25 15:10:44;;;;;;;;;;;;;;;;;;5073034;28;20019;-63
2022/12/25 15:13:12;;;;;;;;;;;;;;;;;;5069916;28;19936;-63
2022/12/25 15:15:37;;;;;;;;;;;;;;;;;;5065331;28;20379;-63
2022/12/25 15:18:02;;;;;;;;;;;;;;;;;;5070840;28;19995;-63
2022/12/25 15:20:27;;;;;;;;;;;;;;;;;;5073894;28;19958;-63
2022/12/25 15:22:52;;;;;;;;;;;;;;;;;;5070795;28;20266;-63
2022/12/25 15:25:19;;;;;;;;;;;;;;;;;;5102067;27;19920;-63
2022/12/25 15:27:44;;;;;;;;;;;;;;;;;;5067787;28;20304;-63
2022/12/25 15:30:09;;;;;;;;;;;;;;;;;;5066868;28;20011;-63
2022/12/25 15:32:34;;;;;;;;;;;;;;;;;;5071130;28;19913;-63
2022/12/25 15:34:59;;;;;;;;;;;;;;;;;;5064780;28;19913;-63
2022/12/25 15:37:25;;;;;;;;;;;;;;;;;;5065799;28;19959;-63
2022/12/25 15:39:50;;;;;;;;;;;;;;;;;;5100292;27;20292;-63
2022/12/25 15:42:15;;;;;;;;;;;;;;;;;;5072673;28;20372;-63
2022/12/25 15:44:40;;;;;;;;;;;;;;;;;;5064192;28;19913;-63
2022/12/25 15:47:05;;;;;;;;;;;;;;;;;;5080845;28;19967;-63
2022/12/25 15:49:31;;;;;;;;;;;;;;;;;;5071933;28;19912;-63
2022/12/25 15:51:56;;;;;;;;;;;;;;;;;;5103033;28;19916;-63
2022/12/25 15:54:21;;;;;;;;;;;;;;;;;;5071311;28;19912;-63
2022/12/25 15:56:46;;;;;;;;;;;;;;;;;;5069832;28;20309;-63
2022/12/25 15:59:11;;;;;;;;;;;;;;;;;;5069804;28;20383;-63
2022/12/25 16:01:36;;;;;;;;;;;;;;;;;;5104254;28;19917;-63
2022/12/25 16:04:01;;;;;;;;;;;;;;;;;;5066929;28;20281;-63
2022/12/25 16:06:27;;;;;;;;;;;;;;;;;;5070890;28;19921;-63
2022/12/25 16:08:52;;;;;;;;;;;;;;;;;;5097335;28;19974;-63
2022/12/25 16:11:17;;;;;;;;;;;;;;;;;;5070045;28;19923;-63
2022/12/25 16:13:42;;;;;;;;;;;;;;;;;;5070658;28;19958;-63
2022/12/25 16:16:07;;;;;;;;;;;;;;;;;;5067141;28;20200;-63
2022/12/25 16:18:32;;;;;;;;;;;;;;;;;;5072236;28;19912;-63
2022/12/25 16:20:57;;;;;;;;;;;;;;;;;;5062264;28;20032;-63
2022/12/25 16:23:23;;;;;;;;;;;;;;;;;;5082349;28;19916;-63
2022/12/25 16:25:48;;;;;;;;;;;;;;;;;;5070817;28;19923;-63
2022/12/25 16:28:13;;;;;;;;;;;;;;;;;;5069860;28;19912;-63
2022/12/25 16:30:38;;;;;;;;;;;;;;;;;;5058913;28;20365;-64
2022/12/25 16:33:03;;;;;;;;;;;;;;;;;;5062445;28;19998;-63
2022/12/25 16:35:28;;;;;;;;;;;;;;;;;;5063604;28;19921;-63
2022/12/25 16:37:53;;;;;;;;;;;;;;;;;;5094974;28;19909;-64
2022/12/25 16:40:19;;;;;;;;;;;;;;;;;;5068687;28;19913;-63
2022/12/25 16:42:44;;;;;;;;;;;;;;;;;;5105846;27;19912;-63
2022/12/25 16:45:09;;;;;;;;;;;;;;;;;;5070230;28;19934;-64
2022/12/25 16:47:34;;;;;;;;;;;;;;;;;;5063335;28;19963;-63
2022/12/25 16:49:59;;;;;;;;;;;;;;;;;;5104025;27;19915;-63
2022/12/25 16:52:24;;;;;;;;;;;;;;;;;;5077736;28;20023;-64
2022/12/25 16:54:50;;;;;;;;;;;;;;;;;;5078853;28;19909;-63
2022/12/25 16:57:15;;;;;;;;;;;;;;;;;;5078343;28;20387;-63
2022/12/25 16:59:40;;;;;;;;;;;;;;;;;;5073416;28;19913;-63
2022/12/25 17:02:05;;;;;;;;;;;;;;;;;;5073837;28;20416;-63
2022/12/25 17:04:30;;;;;;;;;;;;;;;;;;5070247;28;19913;-63
2022/12/25 17:06:55;;;;;;;;;;;;;;;;;;5074437;28;19919;-63
2022/12/25 17:09:21;;;;;;;;;;;;;;;;;;5068671;28;19912;-63
2022/12/25 17:11:46;;;;;;;;;;;;;;;;;;5073637;28;20268;-64
2022/12/25 17:14:11;;;;;;;;;;;;;;;;;;5104458;27;19912;-64
2022/12/25 17:16:36;;;;;;;;;;;;;;;;;;5105028;28;19920;-63
2022/12/25 17:19:02;;;;;;;;;;;;;;;;;;5064725;28;20007;-64
2022/12/25 17:21:28;;;;;;;;;;;;;;;;;;5067502;28;19966;-64
2022/12/25 17:23:53;;;;;;;;;;;;;;;;;;5068996;28;20406;-63
2022/12/25 17:26:18;;;;;;;;;;;;;;;;;;5072204;28;20385;-63
2022/12/25 17:28:44;;;;;;;;;;;;;;;;;;5056732;28;19923;-63
2022/12/25 17:31:09;;;;;;;;;;;;;;;;;;5071408;28;19916;-63
2022/12/25 17:33:34;;;;;;;;;;;;;;;;;;5070384;28;20019;-63
2022/12/25 17:35:59;;;;;;;;;;;;;;;;;;5057167;28;19917;-63
2022/12/25 17:38:24;;;;;;;;;;;;;;;;;;5057324;28;19913;-63
2022/12/25 17:40:49;;;;;;;;;;;;;;;;;;5104798;28;19939;-64
2022/12/25 17:43:15;;;;;;;;;;;;;;;;;;5070657;28;19916;-63
2022/12/25 17:45:40;;;;;;;;;;;;;;;;;;5099320;28;19912;-63
2022/12/25 17:48:05;;;;;;;;;;;;;;;;;;5067026;28;19968;-62
2022/12/25 17:50:30;;;;;;;;;;;;;;;;;;5102282;28;19913;-62
2022/12/25 17:52:55;;;;;;;;;;;;;;;;;;5067461;28;19938;-64
2022/12/25 17:55:20;;;;;;;;;;;;;;;;;;5072115;28;19954;-63
2022/12/25 17:57:46;;;;;;;;;;;;;;;;;;5069673;28;19917;-62
2022/12/25 18:00:12;;;;;;;;;;;;;;;;;;5074448;28;19908;-62
2022/12/25 18:02:38;;;;;;;;;;;;;;;;;;5069131;28;19935;-62
2022/12/25 18:05:03;;;;;;;;;;;;;;;;;;5068008;28;19917;-63
2022/12/25 18:07:29;;;;;;;;;;;;;;;;;;5069304;28;20305;-62
2022/12/25 18:09:54;;;;;;;;;;;;;;;;;;5072743;28;20287;-62
2022/12/25 18:12:19;;;;;;;;;;;;;;;;;;5095059;28;19920;-62
2022/12/25 18:14:44;;;;;;;;;;;;;;;;;;5064770;28;19958;-62
2022/12/25 18:17:09;;;;;;;;;;;;;;;;;;5101193;28;19982;-63